• Join FlightAware (Why Join?)
  • Login
  • US Flag 
07:50PM EST


 

Airport Tracker/Info


-or-


 

Live Flight TrackerFlight Track Log ✈ CNK9897 ✈ 05-Sep-2013 ✈ CYXH - CYYC

Flight Track Log - Related Links

Times and Time Zones

All times are in EDT time to prevent confusion due to time zone crossing. See the CNK9897 flight status page for this flight to view local times or setup timezone preferences in your user account.

Time Position Orientation Groundspeed Altitude Reporting Facility
EDT Latitude Longitude Course Direction KTS MPH feet Rate Location/Type
01:02PM 49.9833 -110.8833 291° West 190 219 5,600  Level Edmonton Center
01:03PM 49.9833 -110.9667 270° West 200 230 7,000 1,440 Climbing Edmonton Center
01:04PM 49.9667 -111.0500 253° West 190 219 8,500 1,440 Climbing Edmonton Center
01:05PM 49.9667 -111.1167 270° West 190 219 9,900 1,260 Climbing Edmonton Center
01:06PM 49.9703 -111.2914 258° West  Level FlightAware Approximate
01:06PM 50.0000 -111.2000 302° West 200 230 11,100  Level Edmonton Center
01:07PM 50.0333 -111.2833 302° West 200 230 12,400 1,200 Climbing Edmonton Center
01:08PM 50.0333 -111.3667 270° West 200 230 13,500 1,140 Climbing Edmonton Center
01:09PM 50.0667 -111.4500 302° West 200 230 14,700 1,140 Climbing Edmonton Center
01:10PM 50.1000 -111.5333 302° West 210 242 15,800 960 Climbing Edmonton Center
01:11PM 50.1167 -111.6167 287° West 210 242 16,700 900 Climbing Edmonton Center
01:12PM 50.1500 -111.7000 302° West 210 242 17,600 840 Climbing Edmonton Center
01:13PM 50.1833 -111.7833 302° West 210 242 18,400 720 Climbing Edmonton Center
01:14PM 50.2000 -111.8667 287° West 210 242 19,100 600 Climbing Edmonton Center
01:15PM 50.2167 -111.9500 287° West 210 242 19,700 420 Climbing Edmonton Center
01:16PM 50.2500 -112.0333 302° West 220 253 20,000 120 Climbing Edmonton Center
01:17PM 50.2833 -112.1167 302° West 240 276 20,000  Level Edmonton Center
01:18PM 50.3167 -112.2333 294° West 250 288 20,000  Level Edmonton Center
01:19PM 50.3500 -112.3167 302° West 250 288 20,000  Level Edmonton Center
01:20PM 50.3833 -112.4333 294° West 260 299 20,000  Level Edmonton Center
01:21PM 50.4000 -112.5333 285° West 260 299 20,000  Level Edmonton Center
01:22PM 50.4500 -112.6333 308° West 260 299 20,000  Level Edmonton Center
01:23PM 50.4667 -112.7333 285° West 250 288 20,000  Level Edmonton Center
01:25PM 50.5333 -112.9333 298° West 260 299 20,000 -240 Level Edmonton Center
01:26PM 50.5667 -113.0500 294° West 260 299 19,400 -1,080 Descending Edmonton Center
01:27PM 50.6000 -113.1500 298° West 280 322 17,900 -1,800 Descending Edmonton Center
01:28PM 50.6333 -113.2667 294° West 300 345 15,800 -2,040 Descending Edmonton Center
01:29PM 50.6667 -113.3833 294° West 300 345 13,900 -1,620 Descending Edmonton Center
01:30PM 50.7333 -113.4833 317° Northwest 290 334 12,600 -1,320 Descending Edmonton Center
01:31PM 50.8000 -113.5500 328° Northwest 290 334 11,300 -1,380 Descending Edmonton Center
01:32PM 50.8667 -113.6333 322° Northwest 280 322 9,900 -1,380 Descending Edmonton Center
01:33PM 50.9333 -113.7000 328° Northwest 280 322 8,600 -1,200 Descending Edmonton Center
01:34PM 50.9667 -113.7667 308° West 220 253 7,500 -1,020 Descending Edmonton Center
01:35PM 51.0167 -113.8333 320° Northwest 180 207 6,600 -900 Descending Edmonton Center
01:36PM 51.0500 -113.8667 328° Northwest 170 196 5,800 -780 Descending Edmonton Center
01:37PM 51.0833 -113.9167 317° Northwest 150 173 5,100 -780 Descending Edmonton Center
01:38PM 51.0667 -113.9833 248° West 130 150 4,300 -540 Descending Edmonton Center
01:40PM 51.0667 -114.0833 270° West 110 127 3,600 -360 Descending Edmonton Center